sensor_id;sensor_type;location;lat;lon;timestamp;temperature;humidity
23347;DHT22;36852;45.466;11.066;2023-04-10T00:01:10;12.80;99.90
23347;DHT22;36852;45.466;11.066;2023-04-10T00:03:38;12.80;99.90
23347;DHT22;36852;45.466;11.066;2023-04-10T00:06:06;12.80;99.90
23347;DHT22;36852;45.466;11.066;2023-04-10T00:08:37;12.70;99.90
23347;DHT22;36852;45.466;11.066;2023-04-10T00:11:04;12.70;99.90
23347;DHT22;36852;45.466;11.066;2023-04-10T00:13:38;12.70;99.90
23347;DHT22;36852;45.466;11.066;2023-04-10T00:16:26;12.70;99.90
23347;DHT22;36852;45.466;11.066;2023-04-10T00:18:53;12.60;99.90
23347;DHT22;36852;45.466;11.066;2023-04-10T00:21:21;12.60;99.90
23347;DHT22;36852;45.466;11.066;2023-04-10T00:23:49;12.60;99.90
23347;DHT22;36852;45.466;11.066;2023-04-10T00:26:17;12.50;99.90
23347;DHT22;36852;45.466;11.066;2023-04-10T00:28:48;12.50;99.90
23347;DHT22;36852;45.466;11.066;2023-04-10T00:31:18;12.50;99.90
23347;DHT22;36852;45.466;11.066;2023-04-10T00:33:46;12.40;99.90
23347;DHT22;36852;45.466;11.066;2023-04-10T00:36:13;12.40;99.90
23347;DHT22;36852;45.466;11.066;2023-04-10T00:38:42;12.40;99.90
23347;DHT22;36852;45.466;11.066;2023-04-10T00:41:09;12.40;99.90
23347;DHT22;36852;45.466;11.066;2023-04-10T00:43:37;12.40;99.90
23347;DHT22;36852;45.466;11.066;2023-04-10T00:46:05;12.40;99.90
23347;DHT22;36852;45.466;11.066;2023-04-10T00:48:39;12.30;99.90
23347;DHT22;36852;45.466;11.066;2023-04-10T00:51:06;12.30;99.90
23347;DHT22;36852;45.466;11.066;2023-04-10T00:53:35;12.30;99.90
23347;DHT22;36852;45.466;11.066;2023-04-10T00:56:04;12.30;99.90
23347;DHT22;36852;45.466;11.066;2023-04-10T00:58:32;12.30;99.90
23347;DHT22;36852;45.466;11.066;2023-04-10T01:01:00;12.40;99.90
23347;DHT22;36852;45.466;11.066;2023-04-10T01:03:28;12.30;99.90
23347;DHT22;36852;45.466;11.066;2023-04-10T01:14:30;12.30;99.90
23347;DHT22;36852;45.466;11.066;2023-04-10T01:17:10;12.30;99.90
23347;DHT22;36852;45.466;11.066;2023-04-10T01:20:04;12.20;99.90
23347;DHT22;36852;45.466;11.066;2023-04-10T01:28:58;12.10;99.90
23347;DHT22;36852;45.466;11.066;2023-04-10T01:31:33;12.10;99.90
23347;DHT22;36852;45.466;11.066;2023-04-10T01:34:07;12.00;99.90
23347;DHT22;36852;45.466;11.066;2023-04-10T01:36:45;12.00;99.90
23347;DHT22;36852;45.466;11.066;2023-04-10T01:39:11;12.00;99.90
23347;DHT22;36852;45.466;11.066;2023-04-10T01:41:40;12.00;99.90
23347;DHT22;36852;45.466;11.066;2023-04-10T01:44:13;11.90;99.90
23347;DHT22;36852;45.466;11.066;2023-04-10T01:46:42;11.90;99.90
23347;DHT22;36852;45.466;11.066;2023-04-10T01:49:11;11.90;99.90
23347;DHT22;36852;45.466;11.066;2023-04-10T01:51:40;11.90;99.90
23347;DHT22;36852;45.466;11.066;2023-04-10T01:54:10;11.90;99.90
23347;DHT22;36852;45.466;11.066;2023-04-10T01:56:39;11.80;99.90
23347;DHT22;36852;45.466;11.066;2023-04-10T01:59:08;11.80;99.90
23347;DHT22;36852;45.466;11.066;2023-04-10T02:01:36;11.80;99.90
23347;DHT22;36852;45.466;11.066;2023-04-10T02:04:04;11.80;99.90
23347;DHT22;36852;45.466;11.066;2023-04-10T02:06:56;11.80;99.90
23347;DHT22;36852;45.466;11.066;2023-04-10T02:09:46;11.70;99.90
23347;DHT22;36852;45.466;11.066;2023-04-10T02:12:20;11.70;99.90
23347;DHT22;36852;45.466;11.066;2023-04-10T02:14:48;11.70;99.90
23347;DHT22;36852;45.466;11.066;2023-04-10T02:17:19;11.60;99.90
23347;DHT22;36852;45.466;11.066;2023-04-10T02:19:52;11.60;99.90
23347;DHT22;36852;45.466;11.066;2023-04-10T02:22:22;11.60;99.90
23347;DHT22;36852;45.466;11.066;2023-04-10T02:24:51;11.50;99.90
23347;DHT22;36852;45.466;11.066;2023-04-10T02:27:33;11.50;99.90
23347;DHT22;36852;45.466;11.066;2023-04-10T02:30:01;11.50;99.90
23347;DHT22;36852;45.466;11.066;2023-04-10T02:32:34;11.40;99.90
23347;DHT22;36852;45.466;11.066;2023-04-10T02:35:01;11.40;99.90
23347;DHT22;36852;45.466;11.066;2023-04-10T02:37:30;11.40;99.90
23347;DHT22;36852;45.466;11.066;2023-04-10T02:39:59;11.30;99.90
23347;DHT22;36852;45.466;11.066;2023-04-10T02:42:31;11.40;99.90
23347;DHT22;36852;45.466;11.066;2023-04-10T02:45:00;11.40;99.90
23347;DHT22;36852;45.466;11.066;2023-04-10T02:47:29;11.30;99.90
23347;DHT22;36852;45.466;11.066;2023-04-10T02:49:58;11.30;99.90
23347;DHT22;36852;45.466;11.066;2023-04-10T02:52:27;11.30;99.90
23347;DHT22;36852;45.466;11.066;2023-04-10T02:54:55;11.20;99.90
23347;DHT22;36852;45.466;11.066;2023-04-10T02:57:23;11.20;99.90
23347;DHT22;36852;45.466;11.066;2023-04-10T03:00:06;11.20;99.90
23347;DHT22;36852;45.466;11.066;2023-04-10T03:02:42;11.10;99.90
23347;DHT22;36852;45.466;11.066;2023-04-10T03:05:12;11.10;99.90
23347;DHT22;36852;45.466;11.066;2023-04-10T03:07:39;11.10;99.90
23347;DHT22;36852;45.466;11.066;2023-04-10T03:10:08;11.00;99.90
23347;DHT22;36852;45.466;11.066;2023-04-10T03:12:36;11.00;99.90
23347;DHT22;36852;45.466;11.066;2023-04-10T03:15:04;11.00;99.90
23347;DHT22;36852;45.466;11.066;2023-04-10T03:17:32;10.90;99.90
23347;DHT22;36852;45.466;11.066;2023-04-10T03:20:00;11.00;99.90
23347;DHT22;36852;45.466;11.066;2023-04-10T03:22:30;10.90;99.90
23347;DHT22;36852;45.466;11.066;2023-04-10T03:24:59;10.80;99.90
23347;DHT22;36852;45.466;11.066;2023-04-10T03:27:29;10.70;99.90
23347;DHT22;36852;45.466;11.066;2023-04-10T03:29:58;10.80;99.90
23347;DHT22;36852;45.466;11.066;2023-04-10T03:32:27;10.70;99.90
23347;DHT22;36852;45.466;11.066;2023-04-10T03:34:59;10.80;99.90
23347;DHT22;36852;45.466;11.066;2023-04-10T03:37:27;10.70;99.90
23347;DHT22;36852;45.466;11.066;2023-04-10T03:39:54;10.70;99.90
23347;DHT22;36852;45.466;11.066;2023-04-10T03:42:23;10.70;99.90
23347;DHT22;36852;45.466;11.066;2023-04-10T03:44:50;10.70;99.90
23347;DHT22;36852;45.466;11.066;2023-04-10T03:47:19;10.70;99.90
23347;DHT22;36852;45.466;11.066;2023-04-10T03:49:48;10.70;99.90
23347;DHT22;36852;45.466;11.066;2023-04-10T03:52:16;10.70;99.90
23347;DHT22;36852;45.466;11.066;2023-04-10T03:54:44;10.70;99.90
23347;DHT22;36852;45.466;11.066;2023-04-10T03:57:14;10.60;99.90
23347;DHT22;36852;45.466;11.066;2023-04-10T03:59:42;10.60;99.90
23347;DHT22;36852;45.466;11.066;2023-04-10T04:02:11;10.60;99.90
23347;DHT22;36852;45.466;11.066;2023-04-10T04:04:40;10.60;99.90
23347;DHT22;36852;45.466;11.066;2023-04-10T04:07:22;10.60;99.90
23347;DHT22;36852;45.466;11.066;2023-04-10T04:10:00;10.60;99.90
23347;DHT22;36852;45.466;11.066;2023-04-10T04:12:42;10.50;99.90
23347;DHT22;36852;45.466;11.066;2023-04-10T04:15:28;10.50;99.90
23347;DHT22;36852;45.466;11.066;2023-04-10T04:17:58;10.40;99.90
23347;DHT22;36852;45.466;11.066;2023-04-10T04:20:37;10.40;99.90
23347;DHT22;36852;45.466;11.066;2023-04-10T04:23:13;10.40;99.90
23347;DHT22;36852;45.466;11.066;2023-04-10T04:25:48;10.40;99.90
23347;DHT22;36852;45.466;11.066;2023-04-10T04:28:23;10.40;99.90
23347;DHT22;36852;45.466;11.066;2023-04-10T04:30:56;10.40;99.90
23347;DHT22;36852;45.466;11.066;2023-04-10T04:33:25;10.40;99.90
23347;DHT22;36852;45.466;11.066;2023-04-10T04:35:58;10.40;99.90
23347;DHT22;36852;45.466;11.066;2023-04-10T04:38:36;10.40;99.90
23347;DHT22;36852;45.466;11.066;2023-04-10T04:41:11;10.40;99.90
23347;DHT22;36852;45.466;11.066;2023-04-10T04:43:41;10.40;99.90
23347;DHT22;36852;45.466;11.066;2023-04-10T04:46:16;10.40;99.90
23347;DHT22;36852;45.466;11.066;2023-04-10T04:48:52;10.40;99.90
23347;DHT22;36852;45.466;11.066;2023-04-10T04:51:24;10.30;99.90
23347;DHT22;36852;45.466;11.066;2023-04-10T04:53:54;10.30;99.90
23347;DHT22;36852;45.466;11.066;2023-04-10T04:56:29;10.30;99.90
23347;DHT22;36852;45.466;11.066;2023-04-10T04:58:59;10.30;99.90
23347;DHT22;36852;45.466;11.066;2023-04-10T05:01:34;10.30;99.90
23347;DHT22;36852;45.466;11.066;2023-04-10T05:04:09;10.40;99.90
23347;DHT22;36852;45.466;11.066;2023-04-10T05:06:54;10.30;99.90
23347;DHT22;36852;45.466;11.066;2023-04-10T05:09:24;10.30;99.90
23347;DHT22;36852;45.466;11.066;2023-04-10T05:11:53;10.30;99.90
23347;DHT22;36852;45.466;11.066;2023-04-10T05:17:23;10.30;99.90
23347;DHT22;36852;45.466;11.066;2023-04-10T05:19:52;10.30;99.90
23347;DHT22;36852;45.466;11.066;2023-04-10T05:22:25;10.40;99.90
23347;DHT22;36852;45.466;11.066;2023-04-10T05:25:12;10.40;99.90
23347;DHT22;36852;45.466;11.066;2023-04-10T05:27:41;10.40;99.90
23347;DHT22;36852;45.466;11.066;2023-04-10T05:30:18;10.40;99.90
23347;DHT22;36852;45.466;11.066;2023-04-10T05:33:04;10.40;99.90
23347;DHT22;36852;45.466;11.066;2023-04-10T05:35:33;10.50;99.90
23347;DHT22;36852;45.466;11.066;2023-04-10T05:38:12;10.50;99.90
23347;DHT22;36852;45.466;11.066;2023-04-10T05:40:44;10.50;99.90
23347;DHT22;36852;45.466;11.066;2023-04-10T05:43:43;10.50;99.90
23347;DHT22;36852;45.466;11.066;2023-04-10T05:46:13;10.60;99.90
23347;DHT22;36852;45.466;11.066;2023-04-10T05:48:49;10.60;99.90
23347;DHT22;36852;45.466;11.066;2023-04-10T05:51:35;10.60;99.90
23347;DHT22;36852;45.466;11.066;2023-04-10T05:54:08;10.70;99.90
23347;DHT22;36852;45.466;11.066;2023-04-10T05:56:53;10.70;99.90
23347;DHT22;36852;45.466;11.066;2023-04-10T05:59:26;10.70;99.90
23347;DHT22;36852;45.466;11.066;2023-04-10T06:02:01;10.70;99.90
23347;DHT22;36852;45.466;11.066;2023-04-10T06:04:29;10.80;99.90
23347;DHT22;36852;45.466;11.066;2023-04-10T06:06:58;10.80;99.90
23347;DHT22;36852;45.466;11.066;2023-04-10T06:09:26;10.90;99.90
23347;DHT22;36852;45.466;11.066;2023-04-10T06:11:53;10.90;99.90
23347;DHT22;36852;45.466;11.066;2023-04-10T06:14:21;11.00;99.90
23347;DHT22;36852;45.466;11.066;2023-04-10T06:16:49;11.00;99.90
23347;DHT22;36852;45.466;11.066;2023-04-10T06:19:18;11.10;99.90
23347;DHT22;36852;45.466;11.066;2023-04-10T06:21:46;11.10;99.90
23347;DHT22;36852;45.466;11.066;2023-04-10T06:24:13;11.20;99.90
23347;DHT22;36852;45.466;11.066;2023-04-10T06:26:44;11.20;99.90
23347;DHT22;36852;45.466;11.066;2023-04-10T06:29:12;11.30;99.90
23347;DHT22;36852;45.466;11.066;2023-04-10T06:31:40;11.30;99.90
23347;DHT22;36852;45.466;11.066;2023-04-10T06:34:08;11.40;99.90
23347;DHT22;36852;45.466;11.066;2023-04-10T06:36:36;11.40;99.90
23347;DHT22;36852;45.466;11.066;2023-04-10T06:39:05;11.50;99.90
23347;DHT22;36852;45.466;11.066;2023-04-10T06:41:32;11.60;99.90
23347;DHT22;36852;45.466;11.066;2023-04-10T06:44:08;11.60;99.90
23347;DHT22;36852;45.466;11.066;2023-04-10T06:46:35;11.70;99.90
23347;DHT22;36852;45.466;11.066;2023-04-10T06:49:03;11.70;99.90
23347;DHT22;36852;45.466;11.066;2023-04-10T06:51:31;11.80;99.90
23347;DHT22;36852;45.466;11.066;2023-04-10T06:54:02;11.80;99.90
23347;DHT22;36852;45.466;11.066;2023-04-10T06:56:29;11.90;99.90
23347;DHT22;36852;45.466;11.066;2023-04-10T06:58:57;11.90;99.90
23347;DHT22;36852;45.466;11.066;2023-04-10T07:01:25;12.00;99.90
23347;DHT22;36852;45.466;11.066;2023-04-10T07:03:53;12.00;99.90
23347;DHT22;36852;45.466;11.066;2023-04-10T07:06:21;12.10;99.90
23347;DHT22;36852;45.466;11.066;2023-04-10T07:08:49;12.20;99.90
23347;DHT22;36852;45.466;11.066;2023-04-10T07:11:18;12.30;99.90
23347;DHT22;36852;45.466;11.066;2023-04-10T07:13:46;12.30;99.90
23347;DHT22;36852;45.466;11.066;2023-04-10T07:16:14;12.40;99.90
23347;DHT22;36852;45.466;11.066;2023-04-10T07:18:44;12.50;99.90
23347;DHT22;36852;45.466;11.066;2023-04-10T07:21:13;12.50;99.90
23347;DHT22;36852;45.466;11.066;2023-04-10T07:23:41;12.60;99.90
23347;DHT22;36852;45.466;11.066;2023-04-10T07:26:14;12.60;99.90
23347;DHT22;36852;45.466;11.066;2023-04-10T07:28:51;12.70;99.90
23347;DHT22;36852;45.466;11.066;2023-04-10T07:31:20;12.80;99.90
23347;DHT22;36852;45.466;11.066;2023-04-10T07:33:53;12.80;99.90
23347;DHT22;36852;45.466;11.066;2023-04-10T07:36:21;12.90;99.90
23347;DHT22;36852;45.466;11.066;2023-04-10T07:38:49;13.00;99.90
23347;DHT22;36852;45.466;11.066;2023-04-10T07:41:17;13.10;99.90
23347;DHT22;36852;45.466;11.066;2023-04-10T07:43:44;13.10;99.90
23347;DHT22;36852;45.466;11.066;2023-04-10T07:46:12;13.10;99.90
23347;DHT22;36852;45.466;11.066;2023-04-10T07:48:40;13.10;99.90
23347;DHT22;36852;45.466;11.066;2023-04-10T07:51:08;13.10;99.90
23347;DHT22;36852;45.466;11.066;2023-04-10T07:53:35;13.20;99.90
23347;DHT22;36852;45.466;11.066;2023-04-10T07:56:04;13.30;99.90
23347;DHT22;36852;45.466;11.066;2023-04-10T07:58:32;13.30;99.90
23347;DHT22;36852;45.466;11.066;2023-04-10T08:01:00;13.40;99.90
23347;DHT22;36852;45.466;11.066;2023-04-10T08:03:29;13.50;99.90
23347;DHT22;36852;45.466;11.066;2023-04-10T08:05:57;13.50;99.90
23347;DHT22;36852;45.466;11.066;2023-04-10T08:08:25;13.60;99.90
23347;DHT22;36852;45.466;11.066;2023-04-10T08:10:54;13.70;99.90
23347;DHT22;36852;45.466;11.066;2023-04-10T08:13:22;13.70;99.70
23347;DHT22;36852;45.466;11.066;2023-04-10T08:15:50;13.70;99.40
23347;DHT22;36852;45.466;11.066;2023-04-10T08:18:19;13.80;99.90
23347;DHT22;36852;45.466;11.066;2023-04-10T08:20:50;13.90;99.90
23347;DHT22;36852;45.466;11.066;2023-04-10T08:23:18;13.90;99.90
23347;DHT22;36852;45.466;11.066;2023-04-10T08:25:47;14.00;99.90
23347;DHT22;36852;45.466;11.066;2023-04-10T08:28:14;14.00;99.20
23347;DHT22;36852;45.466;11.066;2023-04-10T08:30:42;14.10;99.40
23347;DHT22;36852;45.466;11.066;2023-04-10T08:33:10;14.20;98.80
23347;DHT22;36852;45.466;11.066;2023-04-10T08:35:41;14.20;98.50
23347;DHT22;36852;45.466;11.066;2023-04-10T08:38:09;14.20;97.80
23347;DHT22;36852;45.466;11.066;2023-04-10T08:40:39;14.20;97.70
23347;DHT22;36852;45.466;11.066;2023-04-10T08:43:07;14.20;97.50
23347;DHT22;36852;45.466;11.066;2023-04-10T08:45:39;14.20;97.50
23347;DHT22;36852;45.466;11.066;2023-04-10T08:48:07;14.20;97.80
23347;DHT22;36852;45.466;11.066;2023-04-10T08:50:40;14.20;97.00
23347;DHT22;36852;45.466;11.066;2023-04-10T08:53:11;14.20;97.90
23347;DHT22;36852;45.466;11.066;2023-04-10T08:55:41;14.30;98.00
23347;DHT22;36852;45.466;11.066;2023-04-10T08:58:10;14.30;97.50
23347;DHT22;36852;45.466;11.066;2023-04-10T09:00:39;14.40;96.50
23347;DHT22;36852;45.466;11.066;2023-04-10T09:03:10;14.40;96.30
23347;DHT22;36852;45.466;11.066;2023-04-10T09:05:39;14.40;96.80
23347;DHT22;36852;45.466;11.066;2023-04-10T09:08:07;14.40;96.30
23347;DHT22;36852;45.466;11.066;2023-04-10T09:10:36;14.40;96.40
23347;DHT22;36852;45.466;11.066;2023-04-10T09:13:07;14.40;96.50
23347;DHT22;36852;45.466;11.066;2023-04-10T09:15:55;14.40;96.60
23347;DHT22;36852;45.466;11.066;2023-04-10T09:21:10;14.50;96.40
23347;DHT22;36852;45.466;11.066;2023-04-10T09:23:40;14.50;96.70
23347;DHT22;36852;45.466;11.066;2023-04-10T09:28:56;14.50;95.40
23347;DHT22;36852;45.466;11.066;2023-04-10T09:31:37;14.50;95.60
23347;DHT22;36852;45.466;11.066;2023-04-10T09:34:10;14.40;96.00
23347;DHT22;36852;45.466;11.066;2023-04-10T09:36:41;14.40;96.10
23347;DHT22;36852;45.466;11.066;2023-04-10T09:39:10;14.40;96.30
23347;DHT22;36852;45.466;11.066;2023-04-10T09:41:52;14.60;96.10
23347;DHT22;36852;45.466;11.066;2023-04-10T09:44:29;14.60;95.40
23347;DHT22;36852;45.466;11.066;2023-04-10T09:49:52;14.60;95.30
23347;DHT22;36852;45.466;11.066;2023-04-10T09:52:21;14.70;95.00
23347;DHT22;36852;45.466;11.066;2023-04-10T09:54:48;14.80;95.10
23347;DHT22;36852;45.466;11.066;2023-04-10T09:57:19;14.90;95.30
23347;DHT22;36852;45.466;11.066;2023-04-10T09:59:51;15.00;94.60
23347;DHT22;36852;45.466;11.066;2023-04-10T10:02:21;15.00;94.30
23347;DHT22;36852;45.466;11.066;2023-04-10T10:04:51;15.00;93.80
23347;DHT22;36852;45.466;11.066;2023-04-10T10:07:21;15.00;94.40
23347;DHT22;36852;45.466;11.066;2023-04-10T10:09:50;15.10;94.70
23347;DHT22;36852;45.466;11.066;2023-04-10T10:12:23;15.20;95.00
23347;DHT22;36852;45.466;11.066;2023-04-10T10:17:45;15.40;95.20
23347;DHT22;36852;45.466;11.066;2023-04-10T10:20:17;15.50;94.00
23347;DHT22;36852;45.466;11.066;2023-04-10T10:22:45;15.60;93.90
23347;DHT22;36852;45.466;11.066;2023-04-10T10:25:14;15.60;93.80
23347;DHT22;36852;45.466;11.066;2023-04-10T10:27:43;15.70;92.40
23347;DHT22;36852;45.466;11.066;2023-04-10T10:30:13;15.70;92.90
23347;DHT22;36852;45.466;11.066;2023-04-10T10:32:45;15.80;92.60
23347;DHT22;36852;45.466;11.066;2023-04-10T10:35:13;15.80;92.30
23347;DHT22;36852;45.466;11.066;2023-04-10T10:37:42;15.90;92.20
23347;DHT22;36852;45.466;11.066;2023-04-10T10:40:18;15.90;92.50
23347;DHT22;36852;45.466;11.066;2023-04-10T10:45:30;16.10;92.30
23347;DHT22;36852;45.466;11.066;2023-04-10T10:48:00;16.10;92.60
23347;DHT22;36852;45.466;11.066;2023-04-10T10:50:54;16.20;90.50
23347;DHT22;36852;45.466;11.066;2023-04-10T10:58:55;16.10;87.80
23347;DHT22;36852;45.466;11.066;2023-04-10T11:01:26;16.10;90.10
23347;DHT22;36852;45.466;11.066;2023-04-10T11:03:54;16.10;90.10
23347;DHT22;36852;45.466;11.066;2023-04-10T11:06:46;16.10;90.10
23347;DHT22;36852;45.466;11.066;2023-04-10T11:11:59;16.30;90.40
23347;DHT22;36852;45.466;11.066;2023-04-10T11:14:28;16.30;90.50
23347;DHT22;36852;45.466;11.066;2023-04-10T11:17:00;16.50;91.00
23347;DHT22;36852;45.466;11.066;2023-04-10T11:19:55;16.50;90.00
23347;DHT22;36852;45.466;11.066;2023-04-10T11:22:06;16.60;88.70
23347;DHT22;36852;45.466;11.066;2023-04-10T11:24:55;16.60;87.00
23347;DHT22;36852;45.466;11.066;2023-04-10T11:27:41;16.70;85.30
23347;DHT22;36852;45.466;11.066;2023-04-10T11:30:34;16.70;84.20
23347;DHT22;36852;45.466;11.066;2023-04-10T11:33:01;16.80;85.10
23347;DHT22;36852;45.466;11.066;2023-04-10T11:35:29;16.80;85.20
23347;DHT22;36852;45.466;11.066;2023-04-10T11:38:11;16.80;84.00
23347;DHT22;36852;45.466;11.066;2023-04-10T11:40:56;16.80;83.70
23347;DHT22;36852;45.466;11.066;2023-04-10T11:43:24;16.90;82.60
23347;DHT22;36852;45.466;11.066;2023-04-10T11:46:04;16.90;82.80
23347;DHT22;36852;45.466;11.066;2023-04-10T11:48:32;17.00;83.10
23347;DHT22;36852;45.466;11.066;2023-04-10T11:51:11;17.10;80.50
23347;DHT22;36852;45.466;11.066;2023-04-10T11:53:40;17.10;81.00
23347;DHT22;36852;45.466;11.066;2023-04-10T11:56:16;17.10;79.20
23347;DHT22;36852;45.466;11.066;2023-04-10T11:58:43;17.20;78.60
23347;DHT22;36852;45.466;11.066;2023-04-10T12:01:11;17.20;77.90
23347;DHT22;36852;45.466;11.066;2023-04-10T12:03:42;17.20;78.70
23347;DHT22;36852;45.466;11.066;2023-04-10T12:06:12;17.30;81.80
23347;DHT22;36852;45.466;11.066;2023-04-10T12:08:41;17.30;81.70
23347;DHT22;36852;45.466;11.066;2023-04-10T12:11:12;17.40;81.30
23347;DHT22;36852;45.466;11.066;2023-04-10T12:13:39;17.50;81.30
23347;DHT22;36852;45.466;11.066;2023-04-10T12:16:08;17.50;80.10
23347;DHT22;36852;45.466;11.066;2023-04-10T12:18:39;17.60;81.60
23347;DHT22;36852;45.466;11.066;2023-04-10T12:21:08;17.70;80.30
23347;DHT22;36852;45.466;11.066;2023-04-10T12:23:37;17.80;79.60
23347;DHT22;36852;45.466;11.066;2023-04-10T12:28:55;17.70;80.40
23347;DHT22;36852;45.466;11.066;2023-04-10T12:31:29;17.80;79.70
23347;DHT22;36852;45.466;11.066;2023-04-10T12:33:58;17.80;79.60
23347;DHT22;36852;45.466;11.066;2023-04-10T12:36:28;17.80;78.10
23347;DHT22;36852;45.466;11.066;2023-04-10T12:39:03;17.90;78.20
23347;DHT22;36852;45.466;11.066;2023-04-10T12:41:32;18.10;78.30
23347;DHT22;36852;45.466;11.066;2023-04-10T12:44:12;18.20;78.00
23347;DHT22;36852;45.466;11.066;2023-04-10T12:46:41;18.30;75.40
23347;DHT22;36852;45.466;11.066;2023-04-10T12:49:14;18.30;74.40
23347;DHT22;36852;45.466;11.066;2023-04-10T12:51:51;18.30;73.60
23347;DHT22;36852;45.466;11.066;2023-04-10T12:54:36;18.30;72.30
23347;DHT22;36852;45.466;11.066;2023-04-10T12:57:02;18.20;72.80
23347;DHT22;36852;45.466;11.066;2023-04-10T12:59:30;18.30;74.40
23347;DHT22;36852;45.466;11.066;2023-04-10T13:01:59;18.40;73.00
23347;DHT22;36852;45.466;11.066;2023-04-10T13:04:28;18.50;74.60
23347;DHT22;36852;45.466;11.066;2023-04-10T13:06:56;18.70;74.10
23347;DHT22;36852;45.466;11.066;2023-04-10T13:09:24;18.90;71.70
23347;DHT22;36852;45.466;11.066;2023-04-10T13:11:52;19.00;70.20
23347;DHT22;36852;45.466;11.066;2023-04-10T13:14:21;19.10;69.20
23347;DHT22;36852;45.466;11.066;2023-04-10T13:16:49;19.10;69.90
23347;DHT22;36852;45.466;11.066;2023-04-10T13:19:16;19.00;68.20
23347;DHT22;36852;45.466;11.066;2023-04-10T13:21:44;19.10;69.10
23347;DHT22;36852;45.466;11.066;2023-04-10T13:24:11;19.20;69.10
23347;DHT22;36852;45.466;11.066;2023-04-10T13:26:41;19.40;68.20
23347;DHT22;36852;45.466;11.066;2023-04-10T13:29:09;19.70;68.90
23347;DHT22;36852;45.466;11.066;2023-04-10T13:31:36;20.00;70.40
23347;DHT22;36852;45.466;11.066;2023-04-10T13:34:04;20.30;66.80
23347;DHT22;36852;45.466;11.066;2023-04-10T13:36:32;20.40;66.00
23347;DHT22;36852;45.466;11.066;2023-04-10T13:39:01;20.30;63.70
23347;DHT22;36852;45.466;11.066;2023-04-10T13:41:28;20.00;63.10
23347;DHT22;36852;45.466;11.066;2023-04-10T13:43:56;19.60;64.00
23347;DHT22;36852;45.466;11.066;2023-04-10T13:46:24;19.70;65.50
23347;DHT22;36852;45.466;11.066;2023-04-10T13:48:52;19.80;65.10
23347;DHT22;36852;45.466;11.066;2023-04-10T13:51:20;19.80;66.30
23347;DHT22;36852;45.466;11.066;2023-04-10T13:53:48;20.00;66.00
23347;DHT22;36852;45.466;11.066;2023-04-10T13:56:15;20.20;65.50
23347;DHT22;36852;45.466;11.066;2023-04-10T13:58:45;20.20;65.00
23347;DHT22;36852;45.466;11.066;2023-04-10T14:01:13;20.30;63.40
23347;DHT22;36852;45.466;11.066;2023-04-10T14:03:40;20.60;66.30
23347;DHT22;36852;45.466;11.066;2023-04-10T14:06:08;21.00;64.10
23347;DHT22;36852;45.466;11.066;2023-04-10T14:08:39;21.30;62.00
23347;DHT22;36852;45.466;11.066;2023-04-10T14:11:07;21.60;61.40
23347;DHT22;36852;45.466;11.066;2023-04-10T14:13:34;21.60;59.90
23347;DHT22;36852;45.466;11.066;2023-04-10T14:16:03;21.60;59.70
23347;DHT22;36852;45.466;11.066;2023-04-10T14:18:31;21.80;60.00
23347;DHT22;36852;45.466;11.066;2023-04-10T14:20:58;22.00;59.90
23347;DHT22;36852;45.466;11.066;2023-04-10T14:23:26;22.10;57.90
23347;DHT22;36852;45.466;11.066;2023-04-10T14:25:53;22.20;58.40
23347;DHT22;36852;45.466;11.066;2023-04-10T14:28:21;22.10;56.10
23347;DHT22;36852;45.466;11.066;2023-04-10T14:30:50;21.90;55.50
23347;DHT22;36852;45.466;11.066;2023-04-10T14:33:18;21.90;55.40
23347;DHT22;36852;45.466;11.066;2023-04-10T14:35:46;22.10;56.80
23347;DHT22;36852;45.466;11.066;2023-04-10T14:38:14;22.40;56.60
23347;DHT22;36852;45.466;11.066;2023-04-10T14:40:42;22.60;56.20
23347;DHT22;36852;45.466;11.066;2023-04-10T14:43:11;22.80;55.40
23347;DHT22;36852;45.466;11.066;2023-04-10T14:45:39;22.30;53.40
23347;DHT22;36852;45.466;11.066;2023-04-10T14:48:08;22.30;53.90
23347;DHT22;36852;45.466;11.066;2023-04-10T14:50:36;22.20;54.80
23347;DHT22;36852;45.466;11.066;2023-04-10T14:53:04;22.20;53.90
23347;DHT22;36852;45.466;11.066;2023-04-10T14:55:32;22.40;53.70
23347;DHT22;36852;45.466;11.066;2023-04-10T14:58:00;22.70;54.20
23347;DHT22;36852;45.466;11.066;2023-04-10T15:00:29;23.10;53.60
23347;DHT22;36852;45.466;11.066;2023-04-10T15:02:57;23.30;51.90
23347;DHT22;36852;45.466;11.066;2023-04-10T15:05:26;23.50;52.30
23347;DHT22;36852;45.466;11.066;2023-04-10T15:07:54;23.50;50.70
23347;DHT22;36852;45.466;11.066;2023-04-10T15:10:22;23.70;50.80
23347;DHT22;36852;45.466;11.066;2023-04-10T15:12:53;24.10;50.40
23347;DHT22;36852;45.466;11.066;2023-04-10T15:15:20;24.40;49.00
23347;DHT22;36852;45.466;11.066;2023-04-10T15:17:48;24.60;48.20
23347;DHT22;36852;45.466;11.066;2023-04-10T15:20:16;24.70;47.20
23347;DHT22;36852;45.466;11.066;2023-04-10T15:22:43;24.40;47.30
23347;DHT22;36852;45.466;11.066;2023-04-10T15:25:11;24.60;47.90
23347;DHT22;36852;45.466;11.066;2023-04-10T15:27:40;25.00;47.20
23347;DHT22;36852;45.466;11.066;2023-04-10T15:30:08;25.30;45.40
23347;DHT22;36852;45.466;11.066;2023-04-10T15:32:36;25.60;45.50
23347;DHT22;36852;45.466;11.066;2023-04-10T15:35:05;26.10;45.00
23347;DHT22;36852;45.466;11.066;2023-04-10T15:37:34;26.10;43.30
23347;DHT22;36852;45.466;11.066;2023-04-10T15:40:03;26.10;43.50
23347;DHT22;36852;45.466;11.066;2023-04-10T15:42:32;26.40;43.10
23347;DHT22;36852;45.466;11.066;2023-04-10T15:45:00;26.50;43.10
23347;DHT22;36852;45.466;11.066;2023-04-10T15:47:29;27.10;41.60
23347;DHT22;36852;45.466;11.066;2023-04-10T15:49:57;27.80;41.70
23347;DHT22;36852;45.466;11.066;2023-04-10T15:52:25;28.30;38.40
23347;DHT22;36852;45.466;11.066;2023-04-10T15:54:56;28.30;37.50
23347;DHT22;36852;45.466;11.066;2023-04-10T15:57:24;28.40;37.70
23347;DHT22;36852;45.466;11.066;2023-04-10T15:59:51;28.50;36.50
23347;DHT22;36852;45.466;11.066;2023-04-10T16:02:24;27.90;36.50
23347;DHT22;36852;45.466;11.066;2023-04-10T16:04:53;27.10;37.20
23347;DHT22;36852;45.466;11.066;2023-04-10T16:07:20;26.40;38.10
23347;DHT22;36852;45.466;11.066;2023-04-10T16:09:48;25.80;39.00
23347;DHT22;36852;45.466;11.066;2023-04-10T16:12:18;25.30;40.70
23347;DHT22;36852;45.466;11.066;2023-04-10T16:14:45;25.40;40.20
23347;DHT22;36852;45.466;11.066;2023-04-10T16:17:13;25.40;39.80
23347;DHT22;36852;45.466;11.066;2023-04-10T16:19:41;25.50;40.10